createdAt,value
2018-07-02T00:01:38.347Z,18.50
2018-07-02T00:05:47.085Z,18.40
2018-07-02T00:09:41.098Z,18.40
2018-07-02T00:13:35.447Z,18.20
2018-07-02T00:17:29.369Z,18.10
2018-07-02T00:21:23.699Z,18.00
2018-07-02T00:25:17.673Z,17.90
2018-07-02T00:29:11.719Z,17.90
2018-07-02T00:33:06.086Z,17.80
2018-07-02T00:37:00.391Z,17.70
2018-07-02T00:40:54.525Z,17.70
2018-07-02T00:44:48.530Z,17.60
2018-07-02T00:48:42.740Z,17.50
2018-07-02T00:52:38.003Z,17.30
2018-07-02T00:56:32.038Z,17.30
2018-07-02T01:00:26.058Z,17.30
2018-07-02T01:04:20.035Z,17.30
2018-07-02T01:08:14.016Z,17.40
2018-07-02T01:12:08.003Z,17.30
2018-07-02T01:16:02.424Z,17.30
2018-07-02T01:19:56.595Z,17.20
2018-07-02T01:23:50.569Z,17.10
2018-07-02T01:27:44.614Z,17.10
2018-07-02T01:31:38.704Z,17.00
2018-07-02T01:35:32.716Z,16.90
2018-07-02T01:39:26.698Z,16.80
2018-07-02T01:43:20.594Z,16.80
2018-07-02T01:51:08.918Z,16.80
2018-07-02T01:55:02.887Z,16.80
2018-07-02T01:58:56.755Z,16.80
2018-07-02T02:02:50.788Z,16.60
2018-07-02T02:06:44.837Z,16.60
2018-07-02T02:10:38.826Z,16.70
2018-07-02T02:14:33.113Z,16.50
2018-07-02T02:18:27.344Z,16.40
2018-07-02T02:22:21.238Z,16.50
2018-07-02T02:26:15.243Z,16.50
2018-07-02T02:30:09.295Z,16.50
2018-07-02T02:34:03.442Z,16.40
2018-07-02T02:37:57.487Z,16.30
2018-07-02T02:41:51.602Z,16.30
2018-07-02T02:45:46.021Z,16.30
2018-07-02T02:49:42.092Z,16.20
2018-07-02T02:53:36.712Z,16.00
2018-07-02T02:57:30.904Z,16.00
2018-07-02T03:01:25.209Z,15.90
2018-07-02T03:05:19.522Z,15.90
2018-07-02T03:09:14.786Z,15.80
2018-07-02T03:13:08.816Z,15.70
2018-07-02T03:17:03.196Z,15.80
2018-07-02T03:20:57.226Z,15.70
2018-07-02T03:24:51.816Z,15.70
2018-07-02T03:28:46.075Z,15.60
2018-07-02T03:32:39.975Z,15.70
2018-07-02T03:36:34.009Z,15.60
2018-07-02T03:40:28.033Z,15.60
2018-07-02T03:44:22.077Z,15.50
2018-07-02T03:48:16.058Z,15.50
2018-07-02T03:52:10.276Z,15.50
2018-07-02T03:56:08.520Z,15.50
2018-07-02T04:00:01.394Z,15.60
2018-07-02T04:03:55.404Z,15.50
2018-07-02T04:07:49.389Z,15.50
2018-07-02T04:11:44.174Z,15.60
2018-07-02T04:15:38.268Z,15.60
2018-07-02T04:19:32.496Z,15.60
2018-07-02T04:23:27.015Z,15.50
2018-07-02T04:27:21.092Z,15.60
2018-07-02T04:31:15.883Z,15.60
2018-07-02T04:35:09.980Z,15.80
2018-07-02T04:39:05.710Z,15.80
2018-07-02T04:46:54.922Z,17.40
2018-07-02T04:50:49.021Z,20.70
2018-07-02T04:54:42.956Z,23.60
2018-07-02T04:58:37.078Z,25.10
2018-07-02T05:02:31.499Z,26.00
2018-07-02T05:06:25.691Z,26.50
2018-07-02T05:10:19.599Z,26.60
2018-07-02T05:14:14.036Z,26.70
2018-07-02T05:18:08.006Z,26.10
2018-07-02T05:22:03.108Z,24.10
2018-07-02T05:25:57.124Z,22.10
2018-07-02T05:29:51.180Z,20.70
2018-07-02T05:37:39.519Z,19.60
2018-07-02T05:41:33.863Z,19.30
2018-07-02T05:45:28.127Z,19.20
2018-07-02T05:49:22.412Z,19.10
2018-07-02T05:53:16.573Z,19.10
2018-07-02T05:57:10.542Z,19.10
2018-07-02T06:01:04.850Z,19.10
2018-07-02T06:04:59.571Z,19.10
2018-07-02T06:08:53.836Z,19.00
2018-07-02T06:12:47.754Z,18.90
2018-07-02T06:16:42.362Z,18.80
2018-07-02T06:20:37.444Z,18.90
2018-07-02T06:24:31.564Z,19.00
2018-07-02T06:28:25.643Z,18.90
2018-07-02T06:32:19.825Z,19.00
2018-07-02T06:36:13.861Z,19.00
2018-07-02T06:40:07.951Z,19.10
2018-07-02T06:44:09.368Z,19.20
2018-07-02T06:52:09.178Z,19.30
2018-07-02T07:00:24.028Z,19.60
2018-07-02T07:04:21.139Z,19.70
2018-07-02T07:08:18.898Z,19.80
2018-07-02T07:12:13.111Z,19.90
2018-07-02T07:16:07.471Z,19.90
2018-07-02T07:23:57.142Z,20.20
2018-07-02T07:32:01.658Z,20.40
2018-07-02T07:36:07.998Z,20.50
2018-07-02T07:40:04.136Z,20.60
2018-07-02T07:43:58.538Z,20.60
2018-07-02T07:47:52.925Z,20.70
2018-07-02T07:51:47.867Z,20.80
2018-07-02T07:55:55.387Z,20.90
2018-07-02T07:59:51.422Z,20.90
2018-07-02T08:03:47.415Z,21.00
2018-07-02T08:07:43.723Z,21.00
2018-07-02T08:11:37.852Z,21.00
2018-07-02T08:15:32.411Z,21.10
2018-07-02T08:19:27.903Z,21.20
2018-07-02T08:23:22.190Z,21.30
2018-07-02T08:27:18.690Z,21.50
2018-07-02T08:31:12.774Z,21.50
2018-07-02T08:35:06.961Z,21.60
2018-07-02T08:39:00.935Z,21.80
2018-07-02T08:42:55.925Z,21.80
2018-07-02T08:47:06.212Z,21.90
2018-07-02T08:51:19.885Z,21.90
2018-07-02T08:55:17.786Z,22.10
2018-07-02T08:59:12.199Z,22.30
2018-07-02T09:03:07.006Z,22.30
2018-07-02T09:07:01.456Z,22.20
2018-07-02T09:10:55.896Z,22.30
2018-07-02T09:15:06.348Z,22.40
2018-07-02T09:19:01.384Z,22.40
2018-07-02T09:22:55.947Z,22.60
2018-07-02T09:26:50.625Z,22.70
2018-07-02T09:30:44.792Z,22.70
2018-07-02T09:34:49.415Z,22.70
2018-07-02T09:38:51.255Z,22.70
2018-07-02T09:42:45.877Z,22.80
2018-07-02T09:46:40.106Z,22.80
2018-07-02T09:50:36.912Z,22.80
2018-07-02T09:54:31.943Z,22.90
2018-07-02T09:58:27.421Z,23.10
2018-07-02T10:02:22.510Z,23.30
2018-07-02T10:06:21.875Z,23.30
2018-07-02T10:10:19.164Z,23.40
2018-07-02T10:14:14.090Z,23.40
2018-07-02T10:18:09.197Z,23.40
2018-07-02T10:22:08.190Z,23.40
2018-07-02T10:26:06.919Z,23.50
2018-07-02T10:30:05.174Z,23.50
2018-07-02T10:33:59.393Z,23.60
2018-07-02T10:37:53.687Z,23.70
2018-07-02T10:41:49.278Z,23.70
2018-07-02T10:45:51.801Z,23.80
2018-07-02T10:49:51.901Z,23.70
2018-07-02T10:53:54.125Z,23.70
2018-07-02T10:58:03.802Z,23.80
2018-07-02T11:02:11.346Z,24.00
2018-07-02T11:10:33.879Z,24.20
2018-07-02T11:14:43.432Z,24.20
2018-07-02T11:19:00.056Z,24.20
2018-07-02T11:23:55.278Z,24.20
2018-07-02T11:27:59.202Z,24.30
2018-07-02T11:31:57.460Z,24.40
2018-07-02T11:35:51.877Z,24.50
2018-07-02T11:44:06.986Z,24.50
2018-07-02T11:48:11.707Z,24.60
2018-07-02T11:52:17.309Z,24.70
2018-07-02T12:00:51.151Z,24.90
2018-07-02T12:04:45.501Z,24.90
2018-07-02T12:08:40.005Z,25.00
2018-07-02T12:12:34.429Z,25.20
2018-07-02T12:16:45.641Z,25.10
2018-07-02T12:20:53.458Z,25.10
2018-07-02T12:29:11.471Z,25.10
2018-07-02T12:33:10.581Z,25.20
2018-07-02T12:37:18.444Z,25.30
2018-07-02T12:41:12.533Z,25.30
2018-07-02T12:45:06.920Z,25.20
2018-07-02T12:49:01.208Z,25.10
2018-07-02T12:52:56.084Z,25.20
2018-07-02T12:56:53.874Z,25.30
2018-07-02T13:00:47.984Z,25.40
2018-07-02T13:04:42.606Z,25.50
2018-07-02T13:08:37.430Z,25.60
2018-07-02T13:12:44.242Z,25.70
2018-07-02T13:16:47.808Z,25.70
2018-07-02T13:20:44.684Z,25.70
2018-07-02T13:24:38.590Z,25.70
2018-07-02T13:28:32.740Z,25.70
2018-07-02T13:32:26.946Z,25.70
2018-07-02T13:36:22.074Z,25.80
2018-07-02T13:40:19.659Z,26.00
2018-07-02T13:44:14.508Z,26.00
2018-07-02T13:48:08.682Z,26.00
2018-07-02T13:52:03.004Z,25.90
2018-07-02T13:55:59.491Z,26.00
2018-07-02T13:59:53.712Z,26.10
2018-07-02T14:03:52.669Z,26.10
2018-07-02T14:08:01.756Z,26.20
2018-07-02T14:11:57.123Z,26.30
2018-07-02T14:15:53.634Z,26.20
2018-07-02T14:19:53.030Z,26.20
2018-07-02T14:23:47.427Z,26.40
2018-07-02T14:27:41.503Z,26.50
2018-07-02T14:41:30.566Z,26.40
2018-07-02T14:45:32.024Z,26.40
2018-07-02T14:49:28.060Z,26.20
2018-07-02T14:53:22.337Z,26.20
2018-07-02T14:57:16.538Z,26.30
2018-07-02T15:01:11.357Z,26.40
2018-07-02T15:05:06.031Z,26.60
2018-07-02T15:09:01.689Z,26.70
2018-07-02T15:12:56.243Z,26.50
2018-07-02T15:16:50.243Z,26.50
2018-07-02T15:20:44.818Z,26.60
2018-07-02T15:24:38.839Z,26.60
2018-07-02T15:28:32.893Z,26.70
2018-07-02T15:32:33.919Z,26.80
2018-07-02T15:36:28.021Z,26.60
2018-07-02T15:40:22.091Z,26.60
2018-07-02T15:44:16.978Z,26.50
2018-07-02T15:48:11.038Z,26.60
2018-07-02T15:52:05.104Z,26.80
2018-07-02T15:55:59.216Z,26.70
2018-07-02T15:59:53.315Z,26.60
2018-07-02T16:03:46.729Z,26.70
2018-07-02T16:07:40.803Z,26.80
2018-07-02T16:11:35.551Z,26.70
2018-07-02T16:15:29.961Z,26.70
2018-07-02T16:19:23.950Z,26.70
2018-07-02T16:23:18.213Z,26.70
2018-07-02T16:27:14.074Z,26.80
2018-07-02T16:31:09.023Z,26.80
2018-07-02T16:35:03.048Z,26.80
2018-07-02T16:38:57.067Z,26.80
2018-07-02T16:42:51.397Z,26.70
2018-07-02T16:46:45.706Z,26.70
2018-07-02T16:50:40.050Z,26.80
2018-07-02T16:54:34.238Z,26.80
2018-07-02T16:58:28.489Z,26.80
2018-07-02T17:02:22.677Z,26.70
2018-07-02T17:06:17.489Z,26.60
2018-07-02T17:10:11.955Z,26.60
2018-07-02T17:14:06.595Z,26.50
2018-07-02T17:18:00.966Z,26.50
2018-07-02T17:21:54.921Z,26.50
2018-07-02T17:25:50.174Z,26.50
2018-07-02T17:29:44.191Z,26.40
2018-07-02T17:33:38.236Z,26.40
2018-07-02T17:37:32.180Z,26.30
2018-07-02T17:41:26.291Z,26.30
2018-07-02T17:45:20.366Z,26.20
2018-07-02T17:49:14.386Z,26.20
2018-07-02T17:53:08.344Z,26.10
2018-07-02T17:57:02.379Z,26.00
2018-07-02T18:00:56.351Z,25.90
2018-07-02T18:04:50.487Z,25.80
2018-07-02T18:08:44.936Z,25.70
2018-07-02T18:12:39.607Z,25.70
2018-07-02T18:16:33.138Z,25.50
2018-07-02T18:20:27.118Z,25.40
2018-07-02T18:24:21.352Z,25.30
2018-07-02T18:28:15.870Z,25.20
2018-07-02T18:32:10.079Z,25.20
2018-07-02T18:36:04.286Z,25.10
2018-07-02T18:39:58.262Z,25.00
2018-07-02T18:43:53.317Z,24.90
2018-07-02T18:47:47.547Z,24.80
2018-07-02T18:51:41.650Z,24.70
2018-07-02T18:55:36.385Z,24.70
2018-07-02T18:59:30.459Z,24.60
2018-07-02T19:03:24.539Z,24.50
2018-07-02T19:11:12.440Z,24.20
2018-07-02T19:15:07.675Z,24.20
2018-07-02T19:19:01.685Z,24.10
2018-07-02T19:22:55.908Z,24.00
2018-07-02T19:26:50.234Z,23.90
2018-07-02T19:30:44.363Z,23.90
2018-07-02T19:34:38.356Z,23.80
2018-07-02T19:38:32.410Z,23.70
2018-07-02T19:42:27.627Z,23.60
2018-07-02T19:46:23.543Z,23.50
2018-07-02T19:50:17.518Z,23.50
2018-07-02T19:54:11.823Z,23.40
2018-07-02T19:58:06.484Z,23.30
2018-07-02T20:02:00.603Z,23.20
2018-07-02T20:05:55.105Z,23.10
2018-07-02T20:09:49.190Z,23.10
2018-07-02T20:13:43.221Z,22.90
2018-07-02T20:17:37.197Z,22.80
2018-07-02T20:21:31.265Z,22.70
2018-07-02T20:25:25.234Z,22.70
2018-07-02T20:29:19.390Z,22.70
2018-07-02T20:33:13.973Z,22.60
2018-07-02T20:37:08.095Z,22.50
2018-07-02T20:44:55.811Z,22.10
2018-07-02T20:52:43.971Z,22.10
2018-07-02T20:56:41.340Z,22.00
2018-07-02T21:00:40.302Z,21.90
2018-07-02T21:04:34.975Z,22.00
2018-07-02T21:08:29.080Z,21.90
2018-07-02T21:12:23.335Z,21.80
2018-07-02T21:16:17.592Z,21.70
2018-07-02T21:20:11.815Z,21.60
2018-07-02T21:24:05.966Z,21.50
2018-07-02T21:28:00.300Z,21.50
2018-07-02T21:31:54.755Z,21.40
2018-07-02T21:35:49.340Z,21.30
2018-07-02T21:39:44.127Z,21.20
2018-07-02T21:43:38.103Z,21.10
2018-07-02T21:47:33.821Z,21.10
2018-07-02T21:51:28.410Z,21.00
2018-07-02T21:55:22.558Z,21.00
2018-07-02T21:59:16.606Z,21.00
2018-07-02T22:03:10.695Z,20.90
2018-07-02T22:07:06.985Z,20.80
2018-07-02T22:11:01.576Z,20.70
2018-07-02T22:14:56.629Z,20.70
2018-07-02T22:18:51.096Z,20.60
2018-07-02T22:22:47.296Z,20.60
2018-07-02T22:26:45.694Z,20.50
2018-07-02T22:30:39.881Z,20.40
2018-07-02T22:34:34.022Z,20.40
2018-07-02T22:38:28.134Z,20.40
2018-07-02T22:42:22.144Z,20.30
2018-07-02T22:46:16.158Z,20.30
2018-07-02T22:50:10.274Z,20.20
2018-07-02T22:54:04.206Z,20.20
2018-07-02T22:57:58.195Z,20.20
2018-07-02T23:01:52.675Z,20.10
2018-07-02T23:05:46.629Z,20.00
2018-07-02T23:09:40.615Z,19.90
2018-07-02T23:13:34.547Z,20.00
2018-07-02T23:17:28.514Z,20.00
2018-07-02T23:25:15.962Z,19.90
2018-07-02T23:29:10.109Z,19.80
2018-07-02T23:33:04.114Z,19.80
2018-07-02T23:36:58.064Z,19.70
2018-07-02T23:40:52.296Z,19.70
2018-07-02T23:44:46.283Z,19.60
2018-07-02T23:48:40.279Z,19.50
2018-07-02T23:52:34.215Z,19.60
2018-07-02T23:56:28.288Z,19.60
